International Virtual Aviation Organisation

Eastern Europe and Northern Asia MCD

 

Карточка аэропорта UMMS

Внимание!
Информация на этой странице в стадии наполнения.
Если вы не увидели какой-то информации, или заметили неточность - пожалуйста сообщите нам!
Спасибо!
Команда RU-STAFF
Название аэропортаMinsk 2
Название аэропорта (англ.)Minsk 2
Превышение681 ft. (207.6 m.)
Координаты53°52.95', 28°1.848'
Высота перехода6000 ft
Эшелон переходаQNH>=733mm:FL80; QNH<733mm:FL90
Коды ответчика0020−0027; 6230-6237
Зона ОрВДМинск РПИ (UMMV)
Данные METARUMMS 131930Z 18004MPS 9000 BKN042 09/07 Q1016 R13L/CLRD// R13R/////// NOSIG
Проноз погоды (TAF)UMMS 131702Z 1317/1418 12006MPS 9999 SCT010 BECMG 1318/1320 36006MPS 8000 BKN007 TEMPO 1320/1406 02006G11MPS 1200 SHRA BR BKN003 BKN012CB TEMPO 1406/1418 04007G12MPS 2100 -SHRA BKN005 BKN015CB
NOTAMshow/hide NOTAM
AWOS   TABLE

Информация о ВПП

ВПП Длина ВПП (м.) Покрытие Курс ВПП Частота ILS
13L3700Цементобетон131110.7
13R3641Цементобетон131108.9
31L3641Цементобетон311109.7
31R3700Цементобетон311110.1

Диспетчерские позиции

Позывной Наименование органа УВД Частота
UMMS_APPMinsk Approach125.900
UMMS_R_APPMinsk Radar125.250
UMMS_TWRMinsk Tower118.300
UMMS_GNDMinsk Ground129.950



Спутниковое изображение